createdAt,value
2022-11-16T00:02:06.828Z,9.65
2022-11-16T00:04:38.251Z,10.93
2022-11-16T00:07:09.343Z,10.60
2022-11-16T00:09:40.604Z,10.75
2022-11-16T00:12:15.224Z,12.80
2022-11-16T00:14:46.106Z,10.15
2022-11-16T00:17:18.707Z,8.25
2022-11-16T00:19:51.939Z,5.28
2022-11-16T00:22:22.879Z,4.37
2022-11-16T00:24:56.192Z,4.90
2022-11-16T00:27:26.637Z,4.33
2022-11-16T00:29:57.440Z,4.47
2022-11-16T00:32:28.673Z,3.35
2022-11-16T00:34:59.567Z,3.70
2022-11-16T00:37:30.402Z,5.85
2022-11-16T00:40:01.302Z,5.35
2022-11-16T00:42:32.343Z,4.70
2022-11-16T00:45:05.447Z,5.47
2022-11-16T00:47:36.516Z,5.42
2022-11-16T00:50:08.159Z,4.35
2022-11-16T00:52:39.063Z,5.60
2022-11-16T00:55:10.757Z,4.62
2022-11-16T00:57:42.068Z,3.85
2022-11-16T01:00:14.154Z,4.12
2022-11-16T01:02:44.857Z,3.60
2022-11-16T01:05:16.334Z,2.80
2022-11-16T01:07:47.274Z,3.58
2022-11-16T01:10:20.465Z,4.10
2022-11-16T01:12:53.146Z,3.55
2022-11-16T01:15:26.444Z,3.67
2022-11-16T01:17:58.575Z,3.83
2022-11-16T01:20:31.631Z,3.45
2022-11-16T01:23:02.610Z,3.45
2022-11-16T01:25:34.161Z,3.87
2022-11-16T01:28:05.113Z,4.08
2022-11-16T01:30:36.175Z,3.58
2022-11-16T01:33:07.529Z,3.55
2022-11-16T01:35:38.710Z,3.08
2022-11-16T01:38:09.727Z,3.87
2022-11-16T01:40:41.132Z,3.08
2022-11-16T01:43:23.390Z,3.50
2022-11-16T01:45:54.606Z,3.20
2022-11-16T01:48:28.064Z,2.95
2022-11-16T01:50:59.932Z,3.15
2022-11-16T01:53:31.269Z,2.70
2022-11-16T01:56:02.544Z,2.72
2022-11-16T01:58:35.029Z,3.20
2022-11-16T02:01:06.920Z,5.05
2022-11-16T02:03:39.951Z,2.80
2022-11-16T02:06:16.568Z,2.30
2022-11-16T02:12:17.805Z,3.02
2022-11-16T02:15:13.744Z,3.50
2022-11-16T02:18:05.111Z,4.87
2022-11-16T02:20:53.646Z,4.05
2022-11-16T02:23:45.132Z,4.65
2022-11-16T02:26:42.837Z,5.08
2022-11-16T02:29:34.064Z,4.97
2022-11-16T02:32:19.142Z,4.15
2022-11-16T02:35:01.094Z,4.05
2022-11-16T02:37:56.282Z,3.72
2022-11-16T02:40:36.565Z,3.08
2022-11-16T02:43:16.024Z,3.30
2022-11-16T02:45:52.268Z,2.35
2022-11-16T02:48:25.762Z,2.85
2022-11-16T02:50:57.833Z,2.62
2022-11-16T02:53:29.540Z,3.00
2022-11-16T02:56:00.564Z,3.20
2022-11-16T02:58:32.421Z,3.30
2022-11-16T03:01:27.692Z,3.30
2022-11-16T03:04:06.672Z,3.02
2022-11-16T03:06:40.720Z,2.98
2022-11-16T03:09:26.879Z,3.05
2022-11-16T03:12:04.074Z,2.55
2022-11-16T03:14:55.503Z,3.12
2022-11-16T03:17:28.920Z,2.80
2022-11-16T03:20:17.449Z,2.90
2022-11-16T03:22:56.326Z,2.33
2022-11-16T03:25:29.575Z,3.02
2022-11-16T03:28:17.765Z,2.37
2022-11-16T03:30:51.195Z,2.77
2022-11-16T03:33:27.571Z,2.50
2022-11-16T03:36:15.899Z,2.58
2022-11-16T03:38:49.334Z,2.10
2022-11-16T03:41:22.866Z,2.10
2022-11-16T03:43:55.469Z,3.02
2022-11-16T03:46:27.076Z,2.85
2022-11-16T03:49:02.949Z,2.42
2022-11-16T03:51:33.983Z,2.40
2022-11-16T03:54:05.570Z,2.00
2022-11-16T03:56:36.553Z,2.20
2022-11-16T03:59:07.462Z,2.45
2022-11-16T04:01:44.380Z,2.20
2022-11-16T04:04:12.469Z,2.70
2022-11-16T04:07:00.688Z,2.42
2022-11-16T04:09:48.808Z,2.27
2022-11-16T04:12:38.450Z,2.20
2022-11-16T04:15:29.144Z,2.87
2022-11-16T04:18:17.853Z,2.90
2022-11-16T04:21:07.024Z,2.33
2022-11-16T04:23:55.582Z,2.10
2022-11-16T04:26:28.989Z,2.50
2022-11-16T04:29:00.218Z,2.17
2022-11-16T04:31:48.672Z,3.33
2022-11-16T04:34:37.768Z,2.67
2022-11-16T04:37:26.418Z,1.90
2022-11-16T04:39:57.907Z,2.30
2022-11-16T04:42:29.186Z,2.45
2022-11-16T04:45:13.646Z,2.05
2022-11-16T04:47:44.715Z,2.20
2022-11-16T04:50:16.730Z,2.02
2022-11-16T04:52:48.125Z,2.40
2022-11-16T04:55:19.471Z,2.58
2022-11-16T04:57:50.452Z,2.30
2022-11-16T05:00:22.572Z,2.05
2022-11-16T05:02:58.224Z,2.25
2022-11-16T05:05:26.492Z,2.10
2022-11-16T05:07:58.228Z,2.40
2022-11-16T05:10:29.440Z,1.95
2022-11-16T05:13:01.768Z,1.92
2022-11-16T05:15:35.561Z,2.25
2022-11-16T05:18:06.602Z,2.77
2022-11-16T05:20:55.138Z,2.30
2022-11-16T05:23:44.014Z,2.25
2022-11-16T05:26:15.508Z,2.15
2022-11-16T05:28:46.589Z,2.30
2022-11-16T05:31:20.456Z,1.85
2022-11-16T05:33:51.634Z,2.20
2022-11-16T05:36:28.310Z,1.98
2022-11-16T05:39:01.522Z,2.17
2022-11-16T05:41:36.844Z,2.05
2022-11-16T05:44:11.156Z,2.17
2022-11-16T05:46:42.492Z,2.30
2022-11-16T05:49:13.911Z,2.77
2022-11-16T05:51:46.229Z,2.30
2022-11-16T05:54:20.167Z,2.20
2022-11-16T05:56:59.712Z,2.02
2022-11-16T05:59:43.592Z,2.20
2022-11-16T06:02:14.567Z,2.00
2022-11-16T06:04:45.599Z,2.62
2022-11-16T06:07:17.247Z,2.27
2022-11-16T06:09:48.611Z,2.65
2022-11-16T06:12:19.667Z,2.22
2022-11-16T06:14:55.419Z,2.02
2022-11-16T06:20:25.194Z,2.35
2022-11-16T06:25:58.768Z,2.17
2022-11-16T06:32:07.738Z,1.90
2022-11-16T06:34:38.789Z,2.20
2022-11-16T06:37:10.978Z,2.17
2022-11-16T06:39:42.116Z,2.20
2022-11-16T06:42:13.163Z,2.60
2022-11-16T06:44:44.682Z,2.10
2022-11-16T06:47:15.863Z,2.98
2022-11-16T06:49:48.263Z,2.37
2022-11-16T06:52:20.467Z,2.30
2022-11-16T06:54:52.935Z,1.80
2022-11-16T06:58:19.073Z,1.80
2022-11-16T07:00:23.461Z,2.15
2022-11-16T07:03:06.787Z,1.95
2022-11-16T07:05:37.748Z,2.08
2022-11-16T07:08:08.755Z,2.33
2022-11-16T07:10:41.567Z,2.12
2022-11-16T07:13:12.518Z,1.82
2022-11-16T07:15:45.000Z,1.92
2022-11-16T07:18:19.264Z,2.05
2022-11-16T07:21:16.778Z,1.98
2022-11-16T07:23:43.362Z,2.02
2022-11-16T07:29:12.546Z,1.70
2022-11-16T07:31:45.410Z,1.62
2022-11-16T07:34:42.612Z,1.87
2022-11-16T07:37:13.900Z,2.47
2022-11-16T07:45:27.978Z,1.77
2022-11-16T07:48:25.313Z,1.72
2022-11-16T07:50:56.254Z,1.87
2022-11-16T07:53:27.756Z,2.45
2022-11-16T07:56:06.037Z,2.37
2022-11-16T08:05:18.420Z,2.20
2022-11-16T08:08:19.120Z,2.15
2022-11-16T08:10:51.220Z,2.17
2022-11-16T08:13:22.998Z,2.00
2022-11-16T08:15:54.124Z,1.77
2022-11-16T08:18:25.398Z,1.92
2022-11-16T08:20:56.560Z,1.95
2022-11-16T08:23:28.084Z,1.85
2022-11-16T08:26:32.271Z,2.02
2022-11-16T08:29:44.847Z,2.00
2022-11-16T09:03:25.402Z,2.47
2022-11-16T09:05:56.541Z,1.85
2022-11-16T09:08:27.189Z,1.90
2022-11-16T09:10:58.094Z,2.02
2022-11-16T09:13:35.392Z,2.22
2022-11-16T09:16:08.390Z,2.15
2022-11-16T09:18:41.360Z,2.10
2022-11-16T09:21:15.882Z,1.90
2022-11-16T09:24:05.895Z,1.98
2022-11-16T09:26:38.446Z,2.35
2022-11-16T09:29:09.853Z,2.40
2022-11-16T09:31:41.580Z,2.80
2022-11-16T09:34:12.585Z,2.87
2022-11-16T09:36:43.657Z,23.07
2022-11-16T09:39:30.191Z,6.97
2022-11-16T09:45:22.202Z,3.05
2022-11-16T09:47:58.819Z,2.85
2022-11-16T09:50:54.997Z,2.45
2022-11-16T09:53:31.213Z,2.40
2022-11-16T09:56:05.787Z,2.40
2022-11-16T09:58:44.759Z,2.35
2022-11-16T10:01:30.023Z,2.37
2022-11-16T10:04:03.914Z,2.50
2022-11-16T10:06:38.213Z,2.42
2022-11-16T10:09:13.744Z,2.83
2022-11-16T10:12:08.080Z,2.47
2022-11-16T10:14:57.617Z,2.12
2022-11-16T10:17:53.071Z,2.67
2022-11-16T10:20:34.290Z,2.75
2022-11-16T10:23:23.896Z,2.77
2022-11-16T10:26:27.607Z,2.70
2022-11-16T10:48:46.928Z,3.20
2022-11-16T10:51:24.650Z,4.20
2022-11-16T10:54:01.893Z,6.80
2022-11-16T10:58:01.399Z,5.42
2022-11-16T10:59:23.949Z,5.30
2022-11-16T11:02:02.523Z,3.62
2022-11-16T11:04:51.528Z,3.52
2022-11-16T11:07:40.846Z,3.72
2022-11-16T11:10:31.086Z,4.30
2022-11-16T11:13:17.397Z,4.70
2022-11-16T11:19:07.844Z,5.00
2022-11-16T11:21:25.628Z,4.03
2022-11-16T11:24:16.132Z,3.27
2022-11-16T11:26:38.977Z,3.70
2022-11-16T11:32:24.224Z,4.10
2022-11-16T11:34:59.037Z,4.33
2022-11-16T11:37:35.267Z,3.85
2022-11-16T11:40:34.052Z,4.60
2022-11-16T11:43:12.679Z,6.35
2022-11-16T11:45:57.143Z,7.12
2022-11-16T11:48:48.421Z,7.05
2022-11-16T11:51:34.291Z,5.37
2022-11-16T11:54:19.450Z,5.53
2022-11-16T11:56:50.494Z,6.97
2022-11-16T11:59:23.952Z,6.22
2022-11-16T12:02:04.067Z,6.60
2022-11-16T12:05:10.175Z,6.90
2022-11-16T12:07:59.934Z,7.05
2022-11-16T12:10:43.897Z,7.03
2022-11-16T12:13:26.143Z,7.37
2022-11-16T12:19:20.454Z,6.85
2022-11-16T12:25:36.071Z,7.37
2022-11-16T12:28:27.486Z,7.90
2022-11-16T12:31:06.774Z,7.53
2022-11-16T12:33:45.314Z,7.35
2022-11-16T12:36:25.641Z,7.62
2022-11-16T12:39:08.765Z,7.78
2022-11-16T12:42:06.832Z,8.78
2022-11-16T12:44:42.420Z,8.90
2022-11-16T12:47:19.090Z,10.03
2022-11-16T12:50:10.529Z,8.50
2022-11-16T12:52:49.787Z,7.55
2022-11-16T12:58:33.272Z,8.53
2022-11-16T13:01:23.105Z,8.80
2022-11-16T13:03:56.783Z,10.00
2022-11-16T13:06:49.501Z,11.08
2022-11-16T13:09:23.022Z,10.88
2022-11-16T13:11:59.226Z,12.45
2022-11-16T13:14:35.317Z,12.37
2022-11-16T13:20:11.703Z,14.38
2022-11-16T13:20:35.553Z,11.18
2022-11-16T13:22:43.668Z,14.10
2022-11-16T13:25:20.668Z,13.20
2022-11-16T13:27:54.030Z,14.13
2022-11-16T13:30:29.004Z,14.40
2022-11-16T13:33:04.222Z,15.85
2022-11-16T13:35:35.502Z,12.90
2022-11-16T13:38:06.533Z,13.95
2022-11-16T13:40:45.374Z,14.58
2022-11-16T13:46:56.985Z,13.22
2022-11-16T13:49:42.209Z,11.88
2022-11-16T13:52:35.719Z,11.65
2022-11-16T13:55:00.240Z,12.03
2022-11-16T13:57:44.561Z,11.70
2022-11-16T14:03:38.052Z,11.75
2022-11-16T14:06:31.826Z,11.15
2022-11-16T14:09:08.644Z,9.30
2022-11-16T14:11:48.251Z,9.53
2022-11-16T14:14:50.836Z,9.40
2022-11-16T14:18:01.821Z,8.85
2022-11-16T14:20:58.410Z,9.18
2022-11-16T14:23:49.872Z,9.95
2022-11-16T14:26:29.498Z,9.73
2022-11-16T14:29:05.968Z,10.08
2022-11-16T14:32:13.968Z,9.45
2022-11-16T14:41:05.389Z,9.10
2022-11-16T14:43:54.674Z,9.90
2022-11-16T14:46:27.268Z,9.98
2022-11-16T14:49:00.729Z,9.48
2022-11-16T14:51:45.601Z,9.75
2022-11-16T14:54:19.453Z,10.40
2022-11-16T14:57:18.494Z,10.15
2022-11-16T14:59:52.372Z,10.53
2022-11-16T15:02:25.749Z,10.13
2022-11-16T15:07:45.460Z,11.22
2022-11-16T15:10:21.899Z,10.32
2022-11-16T15:13:05.771Z,10.50
2022-11-16T15:15:39.154Z,11.28
2022-11-16T15:18:11.332Z,10.70
2022-11-16T15:20:50.194Z,11.60
2022-11-16T15:23:26.284Z,10.43
2022-11-16T15:26:00.546Z,11.05
2022-11-16T15:31:07.582Z,9.88
2022-11-16T15:36:41.469Z,10.60
2022-11-16T15:42:50.727Z,10.15
2022-11-16T15:45:09.410Z,10.13
2022-11-16T15:51:12.028Z,10.32
2022-11-16T15:57:10.982Z,10.68
2022-11-16T16:02:55.639Z,10.05
2022-11-16T16:09:00.807Z,10.03
2022-11-16T16:18:39.781Z,10.93
2022-11-16T16:20:44.466Z,11.50
2022-11-16T16:23:25.017Z,11.40
2022-11-16T16:25:55.932Z,10.25
2022-11-16T16:28:27.910Z,11.05
2022-11-16T16:33:42.326Z,12.03
2022-11-16T16:36:15.783Z,11.93
2022-11-16T16:39:05.974Z,11.95
2022-11-16T16:41:38.271Z,11.83
2022-11-16T16:44:11.644Z,11.70
2022-11-16T16:46:44.532Z,12.20
2022-11-16T16:49:14.900Z,11.68
2022-11-16T16:51:47.082Z,11.88
2022-11-16T16:54:56.273Z,11.12
2022-11-16T16:57:21.171Z,11.70
2022-11-16T17:00:53.674Z,12.10
2022-11-16T17:02:46.607Z,12.18
2022-11-16T17:05:17.550Z,12.30
2022-11-16T17:07:48.567Z,13.00
2022-11-16T17:10:20.085Z,12.55
2022-11-16T17:12:51.075Z,12.85
2022-11-16T17:15:22.005Z,12.65
2022-11-16T17:17:52.980Z,12.90
2022-11-16T17:20:23.786Z,14.55
2022-11-16T17:22:54.920Z,13.03
2022-11-16T17:25:26.421Z,13.35
2022-11-16T17:27:58.503Z,13.05
2022-11-16T17:30:29.297Z,12.93
2022-11-16T17:33:00.102Z,13.85
2022-11-16T17:35:30.929Z,13.25
2022-11-16T17:38:01.860Z,13.28
2022-11-16T17:40:32.753Z,15.40
2022-11-16T17:43:03.521Z,14.43
2022-11-16T17:45:34.327Z,12.78
2022-11-16T17:48:05.403Z,13.62
2022-11-16T17:50:36.399Z,12.23
2022-11-16T17:53:07.283Z,12.15
2022-11-16T17:55:39.400Z,12.20
2022-11-16T17:58:10.211Z,12.55
2022-11-16T18:00:41.245Z,13.22
2022-11-16T18:03:12.055Z,12.00
2022-11-16T18:05:46.048Z,12.23
2022-11-16T18:08:16.863Z,12.43
2022-11-16T18:10:47.955Z,12.63
2022-11-16T18:13:24.110Z,13.10
2022-11-16T18:15:56.071Z,12.93
2022-11-16T18:18:30.746Z,12.58
2022-11-16T18:21:02.493Z,13.08
2022-11-16T18:23:33.585Z,12.78
2022-11-16T18:26:10.146Z,12.95
2022-11-16T18:28:42.567Z,12.53
2022-11-16T18:31:15.622Z,13.32
2022-11-16T18:33:49.640Z,13.45
2022-11-16T18:36:24.336Z,12.88
2022-11-16T18:38:57.297Z,12.70
2022-11-16T18:41:29.591Z,12.25
2022-11-16T18:44:02.424Z,12.65
2022-11-16T18:46:34.837Z,12.20
2022-11-16T18:49:05.654Z,12.20
2022-11-16T18:51:36.324Z,12.03
2022-11-16T18:54:07.630Z,12.95
2022-11-16T18:56:39.474Z,12.50
2022-11-16T18:59:12.248Z,11.95
2022-11-16T19:01:42.432Z,11.45
2022-11-16T19:04:14.037Z,11.65
2022-11-16T19:06:44.941Z,11.97
2022-11-16T19:09:15.857Z,11.33
2022-11-16T19:11:46.774Z,11.95
2022-11-16T19:14:17.594Z,12.40
2022-11-16T19:16:55.651Z,11.63
2022-11-16T19:19:22.755Z,11.10
2022-11-16T19:21:53.676Z,11.75
2022-11-16T19:24:24.499Z,11.48
2022-11-16T19:26:55.401Z,10.98
2022-11-16T19:29:26.065Z,12.15
2022-11-16T19:31:56.768Z,10.60
2022-11-16T19:34:33.050Z,11.88
2022-11-16T19:36:59.806Z,10.63
2022-11-16T19:39:30.738Z,12.05
2022-11-16T19:42:01.520Z,12.10
2022-11-16T19:44:32.350Z,13.00
2022-11-16T19:47:03.159Z,11.55
2022-11-16T19:49:34.098Z,11.43
2022-11-16T19:52:04.998Z,11.30
2022-11-16T19:54:35.790Z,11.70
2022-11-16T19:57:06.712Z,11.28
2022-11-16T19:59:38.010Z,9.93
2022-11-16T20:02:11.789Z,11.22
2022-11-16T20:04:42.988Z,10.72
2022-11-16T20:07:20.839Z,10.40
2022-11-16T20:09:54.006Z,10.48
2022-11-16T20:12:24.787Z,10.45
2022-11-16T20:14:55.583Z,9.85
2022-11-16T20:17:26.403Z,10.40
2022-11-16T20:19:57.331Z,11.03
2022-11-16T20:22:31.080Z,10.75
2022-11-16T20:25:01.868Z,10.75
2022-11-16T20:27:32.551Z,10.68
2022-11-16T20:30:09.041Z,10.25
2022-11-16T20:32:35.565Z,10.63
2022-11-16T20:35:06.705Z,9.88
2022-11-16T20:37:37.819Z,10.63
2022-11-16T20:40:09.628Z,11.15
2022-11-16T20:42:40.391Z,10.55
2022-11-16T20:45:12.716Z,10.43
2022-11-16T20:48:21.535Z,10.85
2022-11-16T20:50:18.036Z,10.53
2022-11-16T20:52:52.709Z,10.08
2022-11-16T20:55:21.138Z,10.40
2022-11-16T20:57:51.819Z,10.45
2022-11-16T21:00:22.798Z,10.38
2022-11-16T21:02:53.900Z,9.20
2022-11-16T21:05:24.602Z,9.70
2022-11-16T21:07:55.474Z,9.78
2022-11-16T21:10:26.292Z,8.38
2022-11-16T21:13:14.451Z,9.28
2022-11-16T21:15:45.243Z,7.85
2022-11-16T21:18:16.113Z,8.05
2022-11-16T21:20:46.931Z,8.15
2022-11-16T21:23:17.736Z,9.08
2022-11-16T21:25:48.544Z,8.43
2022-11-16T21:28:24.205Z,9.80
2022-11-16T21:30:59.912Z,8.30
2022-11-16T21:33:34.552Z,7.83
2022-11-16T21:36:09.097Z,8.63
2022-11-16T21:38:40.422Z,8.53
2022-11-16T21:41:12.569Z,8.88
2022-11-16T21:43:43.659Z,8.25
2022-11-16T21:46:22.297Z,8.25
2022-11-16T21:48:53.918Z,7.87
2022-11-16T21:51:29.189Z,7.47
2022-11-16T21:53:59.997Z,8.23
2022-11-16T21:56:30.786Z,6.55
2022-11-16T21:59:02.068Z,6.47
2022-11-16T22:01:34.280Z,6.60
2022-11-16T22:04:23.213Z,6.78
2022-11-16T22:07:11.410Z,7.20
2022-11-16T22:09:42.239Z,6.58
2022-11-16T22:12:13.039Z,5.97
2022-11-16T22:14:43.870Z,6.65
2022-11-16T22:17:14.717Z,6.30
2022-11-16T22:19:45.524Z,6.22
2022-11-16T22:22:16.391Z,6.12
2022-11-16T22:24:47.691Z,6.28
2022-11-16T22:27:18.666Z,6.30
2022-11-16T22:29:49.429Z,5.85
2022-11-16T22:32:20.230Z,5.47
2022-11-16T22:34:52.439Z,4.87
2022-11-16T22:37:23.187Z,6.25
2022-11-16T22:39:53.904Z,5.65
2022-11-16T22:42:24.681Z,5.65
2022-11-16T22:44:55.603Z,5.22
2022-11-16T22:47:26.496Z,5.33
2022-11-16T22:49:57.419Z,5.33
2022-11-16T22:52:28.415Z,5.97
2022-11-16T22:54:59.107Z,6.08
2022-11-16T22:57:29.946Z,5.35
2022-11-16T23:00:01.221Z,5.28
2022-11-16T23:02:32.069Z,4.83
2022-11-16T23:05:02.846Z,4.58
2022-11-16T23:07:33.806Z,5.22
2022-11-16T23:10:04.635Z,4.75
2022-11-16T23:12:57.331Z,5.28
2022-11-16T23:15:46.038Z,4.85
2022-11-16T23:18:16.816Z,4.65
2022-11-16T23:21:04.984Z,4.30
2022-11-16T23:23:56.084Z,5.50
2022-11-16T23:26:45.220Z,7.33
2022-11-16T23:29:16.164Z,10.70
2022-11-16T23:31:46.856Z,7.55
2022-11-16T23:34:17.661Z,9.20
2022-11-16T23:36:48.498Z,8.73
2022-11-16T23:39:19.440Z,12.07
2022-11-16T23:42:08.311Z,11.18
2022-11-16T23:44:39.433Z,8.78
2022-11-16T23:47:10.588Z,9.53
2022-11-16T23:49:41.375Z,6.80
2022-11-16T23:52:12.472Z,5.60
2022-11-16T23:54:43.513Z,4.65
2022-11-16T23:57:14.198Z,5.55
2022-11-16T23:59:45.281Z,6.00
